Time;durP1;ratioP1;P1;durP2;ratioP2;P2;SDS_P1;SDS_P2;PMS_P1;PMS_P2;Temp;Humidity;BMP_temperature;BMP_pressure;BME280_temperature;BME280_humidity;BME280_pressure;Samples;Min_cycle;Max_cycle;Signal;HPM_P1;HPM_P2
2022/05/22 00:02:17;;;;;;;4.50;2.73;;;15.60;99.90;;;;;;4976275;28;20855;-88
2022/05/22 00:04:45;;;;;;;6.80;2.17;;;15.50;99.90;;;;;;4976417;28;20464;-88
2022/05/22 00:07:15;;;;;;;5.30;3.03;;;15.40;99.90;;;;;;4977428;28;20502;-88
2022/05/22 00:09:45;;;;;;;6.10;3.40;;;15.20;99.90;;;;;;4991346;28;20399;-88
2022/05/22 00:12:13;;;;;;;3.90;2.23;;;15.10;99.90;;;;;;4998268;28;20437;-88
2022/05/22 00:14:42;;;;;;;5.30;3.30;;;15.10;99.90;;;;;;4992625;28;20456;-87
2022/05/22 00:17:10;;;;;;;4.80;2.73;;;15.20;99.90;;;;;;4986138;28;20546;-87
2022/05/22 00:19:42;;;;;;;6.70;2.57;;;15.20;99.90;;;;;;4982272;28;20458;-87
2022/05/22 00:22:12;;;;;;;4.23;2.50;;;15.10;99.90;;;;;;4981956;28;20429;-88
2022/05/22 00:24:39;;;;;;;4.40;2.53;;;15.10;99.90;;;;;;4980395;28;20505;-88
2022/05/22 00:27:07;;;;;;;5.30;2.80;;;15.20;99.90;;;;;;4978706;28;20451;-87
2022/05/22 00:29:34;;;;;;;5.87;2.57;;;15.20;99.90;;;;;;4980351;28;20452;-88
2022/05/22 00:32:03;;;;;;;4.47;2.80;;;15.10;99.90;;;;;;4980281;28;20434;-88
2022/05/22 00:34:31;;;;;;;4.90;2.80;;;15.10;99.90;;;;;;4980100;28;20555;-88
2022/05/22 00:37:03;;;;;;;5.77;2.90;;;15.10;99.90;;;;;;4981803;28;20470;-88
2022/05/22 00:39:32;;;;;;;6.50;2.47;;;15.10;99.90;;;;;;4982916;28;20479;-88
2022/05/22 00:42:00;;;;;;;5.60;2.70;;;15.10;99.90;;;;;;4979537;28;20565;-87
2022/05/22 00:44:30;;;;;;;4.50;2.80;;;15.10;99.90;;;;;;4981035;28;20452;-87
2022/05/22 00:46:57;;;;;;;6.67;2.80;;;15.00;99.90;;;;;;4995144;28;20439;-88
2022/05/22 00:49:35;;;;;;;3.80;2.60;;;15.00;99.90;;;;;;4980044;28;20430;-87
2022/05/22 00:52:07;;;;;;;8.90;3.07;;;14.90;99.90;;;;;;4979989;28;20486;-87
2022/05/22 00:54:39;;;;;;;5.00;3.20;;;14.90;99.90;;;;;;4979871;28;20819;-88
2022/05/22 00:57:10;;;;;;;7.43;3.33;;;14.80;99.90;;;;;;4979602;28;20468;-88
2022/05/22 00:59:41;;;;;;;6.90;3.50;;;14.90;99.90;;;;;;4979834;28;20480;-88
2022/05/22 01:02:13;;;;;;;5.13;2.90;;;14.80;99.90;;;;;;4979911;28;20430;-88
2022/05/22 01:04:41;;;;;;;3.73;2.37;;;14.80;99.90;;;;;;4980551;28;20461;-87
2022/05/22 01:07:10;;;;;;;4.90;3.17;;;14.80;99.90;;;;;;4984749;28;20550;-87
2022/05/22 01:09:39;;;;;;;6.40;3.83;;;14.80;99.90;;;;;;4986656;28;20427;-87
2022/05/22 01:12:10;;;;;;;4.17;2.50;;;14.70;99.90;;;;;;4985094;28;20503;-88
2022/05/22 01:14:39;;;;;;;5.27;2.87;;;14.70;99.90;;;;;;4983643;28;20500;-87
2022/05/22 01:17:10;;;;;;;5.10;3.03;;;14.70;99.90;;;;;;4982293;28;20977;-88
2022/05/22 01:19:38;;;;;;;5.00;2.63;;;14.70;99.90;;;;;;4978804;28;20588;-88
2022/05/22 01:22:09;;;;;;;4.70;2.60;;;14.70;99.90;;;;;;4979174;28;20507;-87
2022/05/22 01:24:37;;;;;;;6.10;3.10;;;14.70;99.90;;;;;;4978687;28;20446;-87
2022/05/22 01:27:07;;;;;;;10.40;3.47;;;14.70;99.90;;;;;;4982816;28;20584;-88
2022/05/22 01:29:35;;;;;;;4.30;2.90;;;14.60;99.90;;;;;;4980035;28;20495;-88
2022/05/22 01:32:05;;;;;;;4.97;2.73;;;14.60;99.90;;;;;;4979146;28;20456;-87
2022/05/22 01:34:33;;;;;;;5.60;3.43;;;14.60;99.90;;;;;;4985291;28;20484;-87
2022/05/22 01:37:00;;;;;;;6.47;2.67;;;14.60;99.90;;;;;;5021056;23;20463;-88
2022/05/22 01:39:28;;;;;;;4.50;2.43;;;14.60;99.90;;;;;;4974882;28;20505;-87
2022/05/22 01:41:55;;;;;;;5.63;2.60;;;14.60;99.90;;;;;;4979539;28;20516;-86
2022/05/22 01:44:23;;;;;;;4.73;2.77;;;14.50;99.90;;;;;;4978813;28;20470;-87
2022/05/22 01:46:50;;;;;;;4.90;2.50;;;14.50;99.90;;;;;;4977959;28;20508;-87
2022/05/22 01:49:19;;;;;;;3.50;2.27;;;14.40;99.90;;;;;;4978921;28;20543;-87
2022/05/22 01:51:46;;;;;;;4.60;2.30;;;14.30;99.90;;;;;;4960595;28;20527;-88
2022/05/22 01:54:13;;;;;;;5.70;2.63;;;14.30;99.90;;;;;;4959815;28;20474;-88
2022/05/22 01:56:41;;;;;;;6.20;2.70;;;14.40;99.90;;;;;;4962852;28;20513;-88
2022/05/22 01:59:08;;;;;;;6.40;2.63;;;14.50;99.90;;;;;;4966955;28;20490;-87
2022/05/22 02:01:35;;;;;;;4.90;2.73;;;14.50;99.90;;;;;;4967134;28;20928;-88
2022/05/22 02:04:02;;;;;;;5.60;3.00;;;14.50;99.90;;;;;;4964878;28;20509;-87
2022/05/22 02:06:29;;;;;;;4.30;2.60;;;14.50;99.90;;;;;;4964032;28;20455;-88
2022/05/22 02:08:54;;;;;;;5.33;3.20;;;14.40;99.90;;;;;;4965606;28;20442;-88
2022/05/22 02:11:21;;;;;;;6.90;3.13;;;14.40;99.90;;;;;;4966062;28;20453;-88
2022/05/22 02:13:50;;;;;;;6.30;3.37;;;14.40;99.90;;;;;;4957125;28;20252;-88
2022/05/22 02:16:17;;;;;;;7.93;3.47;;;14.30;99.90;;;;;;4957515;28;20587;-87
2022/05/22 02:18:45;;;;;;;7.80;2.67;;;14.20;99.90;;;;;;4956810;28;20455;-88
2022/05/22 02:21:12;;;;;;;4.10;2.37;;;14.30;99.90;;;;;;4958001;28;20468;-88
2022/05/22 02:23:39;;;;;;;10.47;3.53;;;14.30;99.90;;;;;;4957112;28;20455;-88
2022/05/22 02:26:10;;;;;;;4.97;2.70;;;14.30;99.90;;;;;;4956570;28;20649;-88
2022/05/22 02:28:38;;;;;;;4.50;2.60;;;14.30;99.90;;;;;;4957079;28;20416;-88
2022/05/22 02:31:07;;;;;;;5.80;3.30;;;14.30;99.90;;;;;;4956482;28;20467;-88
2022/05/22 02:33:35;;;;;;;4.87;2.77;;;14.50;99.90;;;;;;4958657;28;20428;-88
2022/05/22 02:36:03;;;;;;;5.23;2.70;;;14.50;99.90;;;;;;4956157;28;20392;-88
2022/05/22 02:38:31;;;;;;;4.50;2.80;;;14.40;99.90;;;;;;4956339;29;20514;-88
2022/05/22 02:40:58;;;;;;;4.67;2.80;;;14.30;99.90;;;;;;4957855;28;20532;-88
2022/05/22 02:43:25;;;;;;;4.80;2.50;;;14.30;99.90;;;;;;4962613;28;20453;-88
2022/05/22 02:45:52;;;;;;;5.20;2.97;;;14.30;99.90;;;;;;4974206;28;20460;-87
2022/05/22 02:48:20;;;;;;;4.20;2.73;;;14.30;99.90;;;;;;4966881;28;20461;-87
2022/05/22 02:50:47;;;;;;;6.17;2.87;;;14.50;99.90;;;;;;4968356;28;20415;-88
2022/05/22 02:53:14;;;;;;;7.80;3.03;;;14.30;99.90;;;;;;4961769;28;21019;-88
2022/05/22 02:55:43;;;;;;;5.10;2.90;;;14.30;99.90;;;;;;4960304;28;20453;-87
2022/05/22 02:58:11;;;;;;;11.90;3.80;;;14.30;99.90;;;;;;4956938;28;20905;-87
2022/05/22 03:00:38;;;;;;;7.63;3.50;;;14.30;99.90;;;;;;4962353;29;20846;-86
2022/05/22 03:03:05;;;;;;;9.83;2.90;;;14.20;99.90;;;;;;4972528;28;20537;-87
2022/05/22 03:08:14;;;;;;;5.00;3.40;;;14.20;99.90;;;;;;4955707;28;20521;-87
2022/05/22 03:10:41;;;;;;;4.63;2.83;;;14.10;99.90;;;;;;4956298;28;20494;-88
2022/05/22 03:13:08;;;;;;;5.30;3.33;;;14.20;99.90;;;;;;4956177;28;20457;-88
2022/05/22 03:15:35;;;;;;;5.87;3.13;;;14.30;99.90;;;;;;4955834;28;20467;-88
2022/05/22 03:18:02;;;;;;;4.93;3.27;;;14.20;99.90;;;;;;4955738;28;20580;-87
2022/05/22 03:20:30;;;;;;;6.80;3.17;;;14.10;99.90;;;;;;4957725;28;20503;-88
2022/05/22 03:22:59;;;;;;;4.40;3.20;;;14.10;99.90;;;;;;4967956;28;20443;-88
2022/05/22 03:25:25;;;;;;;5.23;2.73;;;14.20;99.90;;;;;;4973814;28;20437;-88
2022/05/22 03:27:52;;;;;;;6.27;3.50;;;14.20;99.90;;;;;;4965308;28;20547;-88
2022/05/22 03:30:19;;;;;;;5.70;3.70;;;14.10;99.90;;;;;;4956705;28;20428;-88
2022/05/22 03:32:46;;;;;;;4.30;2.80;;;14.20;99.90;;;;;;4958982;28;20471;-87
2022/05/22 03:35:13;;;;;;;5.10;2.80;;;14.20;99.90;;;;;;4959214;28;20535;-87
2022/05/22 03:37:40;;;;;;;4.30;2.57;;;14.00;99.90;;;;;;4959705;28;20455;-88
2022/05/22 03:40:10;;;;;;;4.80;3.17;;;13.90;99.90;;;;;;4958382;28;21085;-88
2022/05/22 03:42:37;;;;;;;4.33;2.67;;;13.80;99.90;;;;;;4958186;28;20573;-87
2022/05/22 03:45:04;;;;;;;6.03;3.13;;;13.80;99.90;;;;;;4956177;28;20494;-88
2022/05/22 03:47:31;;;;;;;4.97;2.90;;;13.80;99.90;;;;;;4955981;28;20477;-88
2022/05/22 03:50:02;;;;;;;4.63;2.87;;;13.90;99.90;;;;;;4960084;28;20513;-89
2022/05/22 03:52:29;;;;;;;5.37;2.67;;;13.90;99.90;;;;;;4963808;28;20584;-88
2022/05/22 03:54:56;;;;;;;4.40;2.57;;;13.80;99.90;;;;;;4956172;28;20544;-88
2022/05/22 03:57:24;;;;;;;5.70;2.90;;;13.80;99.90;;;;;;4955727;28;20606;-87
2022/05/22 03:59:51;;;;;;;4.47;3.10;;;13.80;99.90;;;;;;4964525;28;20522;-88
2022/05/22 04:02:18;;;;;;;5.10;2.80;;;13.80;99.90;;;;;;4958601;28;20467;-88
2022/05/22 04:04:45;;;;;;;5.70;3.00;;;13.90;99.90;;;;;;4966214;28;20463;-88
2022/05/22 04:07:13;;;;;;;8.00;3.37;;;13.90;99.90;;;;;;4960572;28;20476;-88
2022/05/22 04:09:40;;;;;;;4.73;3.17;;;13.90;99.90;;;;;;4967978;28;20506;-87
2022/05/22 04:12:08;;;;;;;4.87;3.17;;;13.90;99.90;;;;;;4978388;28;20460;-87
2022/05/22 04:14:36;;;;;;;5.53;3.10;;;14.00;99.90;;;;;;4975537;28;20457;-87
2022/05/22 04:17:07;;;;;;;5.87;3.50;;;14.00;99.90;;;;;;4978333;28;20461;-88
2022/05/22 04:19:34;;;;;;;5.83;3.10;;;14.00;99.90;;;;;;4965229;28;20512;-88
2022/05/22 04:22:01;;;;;;;9.27;3.17;;;14.00;99.90;;;;;;4961363;28;20506;-88
2022/05/22 04:27:12;;;;;;;7.00;3.53;;;14.00;99.90;;;;;;4973392;28;20997;-87
2022/05/22 04:29:41;;;;;;;4.70;3.17;;;13.90;99.90;;;;;;4959305;28;20424;-88
2022/05/22 04:32:08;;;;;;;6.20;3.40;;;13.90;99.90;;;;;;4959413;28;20445;-88
2022/05/22 04:34:35;;;;;;;6.67;3.60;;;13.90;99.90;;;;;;4962722;28;20506;-88
2022/05/22 04:37:02;;;;;;;7.67;3.30;;;13.90;99.90;;;;;;4959889;28;20996;-88
2022/05/22 04:39:29;;;;;;;5.40;3.33;;;14.00;99.90;;;;;;4958130;28;20558;-88
2022/05/22 04:41:56;;;;;;;6.53;3.30;;;14.10;99.90;;;;;;4958970;28;20455;-88
2022/05/22 04:44:23;;;;;;;5.20;3.83;;;14.20;99.90;;;;;;4958801;28;20450;-88
2022/05/22 04:46:52;;;;;;;5.80;3.63;;;14.20;99.90;;;;;;4958972;28;20469;-88
2022/05/22 04:49:19;;;;;;;7.80;3.73;;;14.30;99.90;;;;;;4959270;28;20460;-88
2022/05/22 04:51:46;;;;;;;6.63;3.60;;;14.40;99.90;;;;;;4964776;28;20441;-88
2022/05/22 04:54:14;;;;;;;7.60;3.07;;;14.40;99.90;;;;;;4960820;28;20559;-88
2022/05/22 04:56:41;;;;;;;6.17;3.30;;;14.50;99.90;;;;;;4959963;28;20464;-88
2022/05/22 04:59:08;;;;;;;4.80;3.10;;;14.50;99.90;;;;;;4959541;28;20933;-88
2022/05/22 05:01:35;;;;;;;8.10;4.00;;;14.60;99.90;;;;;;4959271;28;20455;-88
2022/05/22 05:04:03;;;;;;;9.00;4.10;;;14.70;99.90;;;;;;4966067;28;20432;-88
2022/05/22 05:06:31;;;;;;;5.43;3.63;;;14.80;99.90;;;;;;4966294;28;21010;-88
2022/05/22 05:08:58;;;;;;;5.90;3.67;;;14.90;99.90;;;;;;4963093;28;20929;-88
2022/05/22 05:11:25;;;;;;;8.33;3.97;;;14.90;99.90;;;;;;4977101;28;20500;-87
2022/05/22 05:13:52;;;;;;;5.87;3.60;;;15.00;99.90;;;;;;4977770;28;20469;-87
2022/05/22 05:16:19;;;;;;;5.67;4.20;;;15.10;99.90;;;;;;4973674;28;20469;-86
2022/05/22 05:18:46;;;;;;;5.80;3.70;;;15.20;99.90;;;;;;4965715;28;20461;-87
2022/05/22 05:21:17;;;;;;;5.67;4.00;;;15.10;99.90;;;;;;4959443;28;20548;-87
2022/05/22 05:23:44;;;;;;;5.53;3.90;;;15.20;99.90;;;;;;4964782;28;20638;-87
2022/05/22 05:26:11;;;;;;;8.13;4.03;;;15.20;99.90;;;;;;4963759;28;20544;-87
2022/05/22 05:28:38;;;;;;;5.20;3.43;;;15.30;99.90;;;;;;4962525;28;20491;-87
2022/05/22 05:31:19;;;;;;;5.63;4.00;;;15.30;99.90;;;;;;4977507;28;20463;-89
2022/05/22 05:33:46;;;;;;;5.40;3.83;;;15.40;99.90;;;;;;4963614;28;20452;-88
2022/05/22 05:36:14;;;;;;;4.47;3.33;;;15.50;99.90;;;;;;4960392;28;20477;-89
2022/05/22 05:38:44;;;;;;;6.27;4.17;;;15.50;99.90;;;;;;4960937;28;20862;-88
2022/05/22 05:41:11;;;;;;;4.93;3.47;;;15.50;99.90;;;;;;4959579;28;20496;-87
2022/05/22 05:43:38;;;;;;;5.30;3.37;;;15.60;99.90;;;;;;4958785;28;20464;-88
2022/05/22 05:46:05;;;;;;;8.33;3.93;;;15.70;99.90;;;;;;4961257;28;20469;-87
2022/05/22 05:48:32;;;;;;;5.13;3.60;;;15.80;99.90;;;;;;4966974;28;20460;-87
2022/05/22 05:50:59;;;;;;;6.00;3.87;;;15.90;99.90;;;;;;4963411;28;20449;-88
2022/05/22 05:53:32;;;;;;;4.80;3.30;;;15.90;99.90;;;;;;4958686;28;20512;-89
2022/05/22 05:56:04;;;;;;;6.70;4.33;;;16.00;99.90;;;;;;4960186;28;20944;-89
2022/05/22 05:58:31;;;;;;;5.50;3.50;;;16.10;99.90;;;;;;4959944;29;20465;-88
2022/05/22 06:00:58;;;;;;;5.17;3.37;;;16.20;99.90;;;;;;4974603;28;20523;-87
2022/05/22 06:03:25;;;;;;;7.07;3.17;;;16.40;99.90;;;;;;4959540;28;20471;-87
2022/05/22 06:05:51;;;;;;;9.60;3.10;;;16.50;99.90;;;;;;4962182;28;20465;-88
2022/05/22 06:08:19;;;;;;;5.83;3.00;;;16.70;99.90;;;;;;4970902;28;20464;-88
2022/05/22 06:10:47;;;;;;;4.93;2.90;;;16.80;99.90;;;;;;4960892;28;20416;-88
2022/05/22 06:13:14;;;;;;;6.57;3.43;;;16.80;99.90;;;;;;4962731;28;20607;-88
2022/05/22 06:15:41;;;;;;;6.63;3.20;;;17.00;99.90;;;;;;4967170;28;20488;-87
2022/05/22 06:18:08;;;;;;;5.63;3.53;;;17.00;99.90;;;;;;4965703;28;20484;-88
2022/05/22 06:20:35;;;;;;;6.07;3.20;;;17.10;99.90;;;;;;4967261;28;20463;-88
2022/05/22 06:23:03;;;;;;;5.53;3.57;;;17.20;99.90;;;;;;4966024;28;20416;-88
2022/05/22 06:25:31;;;;;;;7.60;2.80;;;17.30;99.90;;;;;;4968250;28;20520;-88
2022/05/22 06:28:00;;;;;;;4.37;2.93;;;17.40;99.90;;;;;;4967089;28;20542;-88
2022/05/22 06:30:27;;;;;;;7.00;3.43;;;17.50;99.90;;;;;;4962257;28;20549;-88
2022/05/22 06:32:54;;;;;;;6.83;2.37;;;17.40;99.90;;;;;;4961718;28;20459;-88
2022/05/22 06:35:21;;;;;;;3.90;2.50;;;17.60;99.90;;;;;;4962285;28;20486;-88
2022/05/22 06:37:48;;;;;;;5.20;2.60;;;17.80;99.90;;;;;;4960972;28;20508;-88
2022/05/22 06:40:14;;;;;;;5.40;2.17;;;17.90;99.90;;;;;;4958259;28;20544;-88
2022/05/22 06:42:44;;;;;;;5.07;2.70;;;18.10;99.90;;;;;;4958220;28;20457;-88
2022/05/22 06:45:14;;;;;;;4.20;2.53;;;18.20;99.90;;;;;;4958067;28;20448;-88
2022/05/22 06:47:43;;;;;;;6.30;3.13;;;18.20;99.90;;;;;;4957710;28;20516;-88
2022/05/22 06:50:13;;;;;;;4.63;2.47;;;18.40;99.90;;;;;;4969736;28;20530;-88
2022/05/22 06:52:40;;;;;;;6.70;2.87;;;18.40;99.90;;;;;;4977844;28;20461;-88
2022/05/22 06:55:08;;;;;;;3.83;2.30;;;18.50;99.90;;;;;;4966144;28;20504;-88
2022/05/22 06:57:36;;;;;;;4.70;2.20;;;18.50;99.90;;;;;;4958485;28;20453;-88
2022/05/22 07:00:07;;;;;;;5.40;2.50;;;18.70;99.90;;;;;;4968324;28;21096;-89
2022/05/22 07:02:39;;;;;;;3.77;2.10;;;18.70;99.90;;;;;;4975959;28;20448;-88
2022/05/22 07:05:07;;;;;;;7.93;2.83;;;18.80;99.90;;;;;;4970554;28;20449;-89
2022/05/22 07:07:34;;;;;;;4.97;2.80;;;18.90;99.90;;;;;;4964025;28;20473;-88
2022/05/22 07:10:01;;;;;;;7.33;2.53;;;18.90;99.90;;;;;;4966458;28;20450;-88
2022/05/22 07:12:28;;;;;;;6.30;2.27;;;19.00;99.90;;;;;;4966534;28;20453;-88
2022/05/22 07:14:56;;;;;;;6.50;2.30;;;19.20;99.90;;;;;;4959364;28;20600;-88
2022/05/22 07:17:25;;;;;;;4.63;2.57;;;19.30;99.90;;;;;;4958198;28;20939;-89
2022/05/22 07:19:55;;;;;;;7.17;2.43;;;19.30;99.90;;;;;;4964590;28;20833;-88
2022/05/22 07:22:22;;;;;;;7.83;2.53;;;19.40;99.90;;;;;;4957886;28;20552;-89
2022/05/22 07:24:49;;;;;;;6.27;2.37;;;19.40;99.90;;;;;;4962002;28;20638;-88
2022/05/22 07:27:16;;;;;;;5.00;2.50;;;19.50;99.90;;;;;;4968331;28;20484;-89
2022/05/22 07:29:43;;;;;;;4.00;2.40;;;19.60;99.90;;;;;;4970168;28;20544;-89
2022/05/22 07:32:10;;;;;;;7.57;2.40;;;19.70;99.90;;;;;;4961459;28;20483;-89
2022/05/22 07:34:38;;;;;;;5.33;2.37;;;19.80;99.90;;;;;;4958560;28;20453;-89
2022/05/22 07:37:09;;;;;;;5.37;2.40;;;20.00;99.80;;;;;;4957600;28;20552;-88
2022/05/22 07:39:36;;;;;;;4.60;2.80;;;20.10;99.30;;;;;;4958153;28;20540;-88
2022/05/22 07:42:04;;;;;;;3.90;2.53;;;20.00;99.30;;;;;;4999928;23;20496;-86
2022/05/22 07:44:31;;;;;;;4.37;2.53;;;20.00;99.40;;;;;;4980114;28;20531;-86
2022/05/22 07:47:00;;;;;;;6.67;3.27;;;20.00;99.30;;;;;;4982801;28;20436;-87
2022/05/22 07:52:15;;;;;;;3.50;2.00;;;20.00;99.10;;;;;;4982701;28;20854;-87
2022/05/22 07:54:42;;;;;;;3.50;2.27;;;20.00;99.20;;;;;;4995932;28;20449;-87
2022/05/22 07:57:09;;;;;;;4.40;2.00;;;20.10;98.70;;;;;;4997997;28;20440;-87
2022/05/22 07:59:38;;;;;;;4.77;2.77;;;20.00;99.00;;;;;;4989654;28;20471;-87
2022/05/22 08:02:08;;;;;;;6.80;2.50;;;20.10;98.70;;;;;;4981351;28;20574;-87
2022/05/22 08:04:35;;;;;;;4.33;2.53;;;20.10;98.90;;;;;;4993915;28;20439;-84
2022/05/22 08:07:02;;;;;;;3.70;2.40;;;20.30;99.10;;;;;;4998372;28;20433;-83
2022/05/22 08:09:31;;;;;;;4.20;2.70;;;20.20;99.30;;;;;;4998643;28;20459;-83
2022/05/22 08:11:59;;;;;;;5.20;2.47;;;20.20;99.20;;;;;;4998124;28;20472;-86
2022/05/22 08:14:27;;;;;;;5.60;2.70;;;20.40;98.90;;;;;;4997261;28;20436;-86
2022/05/22 08:16:54;;;;;;;4.90;3.00;;;20.40;98.50;;;;;;4991064;28;20456;-87
2022/05/22 08:19:22;;;;;;;5.43;2.47;;;20.50;98.70;;;;;;4982132;28;20460;-87
2022/05/22 08:21:49;;;;;;;4.10;2.40;;;20.60;98.20;;;;;;4979211;28;20492;-87
2022/05/22 08:24:16;;;;;;;4.70;2.50;;;20.60;97.30;;;;;;4980084;28;20496;-88
2022/05/22 08:26:46;;;;;;;4.27;2.33;;;20.70;97.70;;;;;;4985675;28;20476;-87
2022/05/22 08:29:13;;;;;;;8.30;2.90;;;20.80;98.00;;;;;;4983799;28;20455;-87
2022/05/22 08:31:41;;;;;;;5.60;2.50;;;20.90;97.70;;;;;;4983702;28;20513;-86
2022/05/22 08:34:08;;;;;;;6.27;2.80;;;21.00;97.30;;;;;;4988731;28;20970;-87
2022/05/22 08:36:38;;;;;;;5.80;2.60;;;21.00;97.30;;;;;;4986866;28;20443;-87
2022/05/22 08:39:05;;;;;;;5.77;2.60;;;20.90;97.50;;;;;;4988922;28;20436;-87
2022/05/22 08:41:42;;;;;;;5.20;2.57;;;20.90;97.20;;;;;;4983136;28;21022;-88
2022/05/22 08:44:13;;;;;;;4.50;2.60;;;20.60;97.10;;;;;;4981978;28;20444;-88
2022/05/22 08:46:57;;;;;;;5.17;2.33;;;20.80;97.40;;;;;;4981460;28;20535;-87
2022/05/22 08:49:29;;;;;;;7.47;2.60;;;21.00;97.30;;;;;;4988619;28;20452;-88
2022/05/22 08:52:02;;;;;;;5.70;2.67;;;21.10;96.90;;;;;;4984904;28;20476;-87
2022/05/22 08:54:37;;;;;;;5.60;2.30;;;21.20;96.70;;;;;;4984399;28;20436;-88
2022/05/22 09:00:14;;;;;;;5.03;2.80;;;21.10;96.50;;;;;;4988482;28;20981;-87
2022/05/22 09:03:03;;;;;;;4.83;2.80;;;21.10;96.90;;;;;;4988711;28;20456;-87
2022/05/22 09:08:51;;;;;;;5.00;2.50;;;21.20;96.80;;;;;;4988793;28;20468;-87
2022/05/22 09:15:04;;;;;;;6.30;3.07;;;21.20;96.20;;;;;;4996089;28;20973;-88
2022/05/22 09:18:00;;;;;;;4.80;2.43;;;21.30;96.40;;;;;;4994346;28;20460;-88
2022/05/22 09:27:42;;;;;;;4.63;2.67;;;21.70;95.10;;;;;;4979226;28;20535;-87
2022/05/22 09:31:22;;;;;;;4.57;2.80;;;21.80;95.00;;;;;;4993217;28;20444;-87
2022/05/22 09:34:17;;;;;;;5.30;2.63;;;21.90;94.50;;;;;;4993386;28;20428;-87
2022/05/22 09:54:30;;;;;;;5.90;2.57;;;21.80;94.00;;;;;;4922657;29;20431;-87
2022/05/22 10:04:52;;;;;;;4.87;2.30;;;21.90;93.20;;;;;;4892329;29;20443;-86
2022/05/22 10:14:33;;;;;;;4.50;2.10;;;22.20;92.40;;;;;;4862267;29;20916;-88
2022/05/22 10:32:12;;;;;;;4.10;2.53;;;22.40;90.80;;;;;;4987921;28;20460;-86
2022/05/22 10:54:57;;;;;;;3.93;2.13;;;22.80;88.00;;;;;;4955064;28;20545;-87
2022/05/22 11:15:28;;;;;;;5.33;2.67;;;23.20;87.30;;;;;;4785138;30;20545;-87
2022/05/22 11:22:20;;;;;;;4.97;2.37;;;23.50;85.90;;;;;;4883049;29;20491;-88
2022/05/22 11:32:13;;;;;;;4.57;2.83;;;23.70;85.00;;;;;;4954538;28;20448;-87
2022/05/22 11:35:36;;;;;;;6.03;3.10;;;23.70;85.30;;;;;;4990013;28;20440;-87
2022/05/22 11:41:53;;;;;;;5.80;3.00;;;24.00;83.40;;;;;;4972223;28;20495;-86
2022/05/22 11:48:41;;;;;;;4.63;2.70;;;23.80;83.70;;;;;;4949257;29;20431;-87
2022/05/22 12:02:03;;;;;;;6.80;2.80;;;23.50;83.00;;;;;;4955505;23;20568;-87
2022/05/22 12:12:01;;;;;;;5.70;3.00;;;23.80;82.60;;;;;;4875697;28;20452;-88
2022/05/22 12:15:22;;;;;;;5.67;2.60;;;24.00;81.60;;;;;;4956048;28;20968;-87
2022/05/22 12:21:13;;;;;;;6.00;2.90;;;24.20;81.00;;;;;;4948701;28;20567;-87
2022/05/22 12:23:53;;;;;;;4.87;2.13;;;24.10;80.60;;;;;;4965188;28;20441;-87
2022/05/22 12:26:26;;;;;;;4.27;2.30;;;24.10;79.10;;;;;;4970332;28;20433;-88
2022/05/22 12:29:02;;;;;;;4.17;2.67;;;24.10;79.40;;;;;;4967036;28;20405;-89
2022/05/22 12:31:33;;;;;;;5.13;2.60;;;24.20;79.90;;;;;;4964225;28;20998;-88
2022/05/22 12:34:05;;;;;;;4.30;2.53;;;24.20;79.30;;;;;;4964706;28;20461;-87
2022/05/22 12:37:31;;;;;;;;;;;;;;;;;;;;;
2022/05/22 12:41:03;;;;;;;7.90;3.20;;;24.10;78.60;;;;;;4952629;29;20517;-87
2022/05/22 13:45:16;;;;;;;4.20;1.93;;;25.40;68.40;;;;;;4744996;23;20504;-87
2022/05/22 13:48:33;;;;;;;5.07;2.40;;;25.50;68.80;;;;;;4963143;29;20440;-87
2022/05/22 13:54:11;;;;;;;4.33;2.57;;;25.50;69.50;;;;;;4948667;28;20453;-88
2022/05/22 13:56:44;;;;;;;4.30;2.43;;;25.70;69.50;;;;;;4967123;29;20448;-87
2022/05/22 13:59:21;;;;;;;5.33;2.37;;;25.70;68.30;;;;;;4965868;29;20410;-87
2022/05/22 14:01:52;;;;;;;4.57;2.47;;;25.70;68.20;;;;;;4965442;29;20477;-87
2022/05/22 14:04:20;;;;;;;4.20;2.03;;;25.70;67.70;;;;;;4961939;28;20501;-88
2022/05/22 14:06:50;;;;;;;5.90;2.47;;;25.80;67.30;;;;;;4960102;28;20559;-88
2022/05/22 14:09:30;;;;;;;4.50;2.20;;;26.00;66.90;;;;;;4961258;28;20735;-88
2022/05/22 14:11:57;;;;;;;5.93;2.50;;;25.90;66.20;;;;;;4961016;29;20560;-88
2022/05/22 14:14:28;;;;;;;5.63;2.60;;;26.10;65.70;;;;;;4961350;29;20483;-88
2022/05/22 14:17:01;;;;;;;4.63;2.20;;;26.30;65.30;;;;;;4965046;29;20445;-88
2022/05/22 14:19:30;;;;;;;3.47;2.00;;;26.40;63.90;;;;;;4963624;29;20468;-88
2022/05/22 14:22:10;;;;;;;4.10;2.50;;;26.50;62.80;;;;;;4963509;28;20980;-87
2022/05/22 14:24:54;;;;;;;4.53;2.27;;;26.40;63.20;;;;;;4969092;28;20458;-87
2022/05/22 14:27:29;;;;;;;4.37;2.27;;;26.10;63.10;;;;;;4978119;28;20457;-88
2022/05/22 14:30:15;;;;;;;4.67;2.10;;;26.00;64.00;;;;;;4977390;28;20432;-88
2022/05/22 14:32:47;;;;;;;5.10;2.53;;;26.10;64.20;;;;;;4965500;29;20453;-87
2022/05/22 14:35:17;;;;;;;4.53;3.00;;;26.00;64.00;;;;;;4963287;29;20450;-88
2022/05/22 14:37:45;;;;;;;4.50;2.60;;;26.10;64.20;;;;;;4962324;28;20500;-88
2022/05/22 14:40:23;;;;;;;4.33;2.40;;;26.20;63.40;;;;;;4962778;28;20504;-87
2022/05/22 14:42:56;;;;;;;3.90;2.27;;;25.90;63.20;;;;;;4963085;28;21095;-88
2022/05/22 14:45:30;;;;;;;6.30;3.00;;;25.90;63.70;;;;;;4966754;29;20425;-88
2022/05/22 14:48:02;;;;;;;4.27;2.67;;;25.70;63.30;;;;;;4964690;28;20519;-89
2022/05/22 14:50:29;;;;;;;5.77;2.43;;;26.20;63.40;;;;;;4962866;29;20475;-88
2022/05/22 14:53:02;;;;;;;4.20;2.43;;;26.30;61.40;;;;;;4964351;28;20481;-88
2022/05/22 14:55:35;;;;;;;4.10;2.43;;;26.40;61.30;;;;;;4962270;29;20434;-88
2022/05/22 14:58:10;;;;;;;4.30;2.57;;;26.40;60.70;;;;;;4961429;29;20854;-87
2022/05/22 15:00:42;;;;;;;4.13;2.40;;;26.80;60.40;;;;;;4962140;29;20468;-89
2022/05/22 15:03:26;;;;;;;3.57;1.90;;;26.80;59.50;;;;;;4970531;29;20485;-87
2022/05/22 15:05:54;;;;;;;4.30;2.17;;;27.00;59.00;;;;;;4965560;29;20520;-88
2022/05/22 15:08:25;;;;;;;4.57;1.90;;;27.00;58.50;;;;;;4961022;28;20540;-88
2022/05/22 15:10:52;;;;;;;5.73;2.53;;;26.90;57.90;;;;;;4961155;28;20516;-88
2022/05/22 15:13:29;;;;;;;4.10;2.10;;;26.90;58.60;;;;;;4964706;29;20579;-89
2022/05/22 15:16:07;;;;;;;4.03;2.10;;;26.80;58.60;;;;;;4963715;29;20540;-89
2022/05/22 15:21:37;;;;;;;4.70;2.40;;;26.50;58.90;;;;;;4967349;28;20442;-88
2022/05/22 15:26:54;;;;;;;5.13;2.60;;;26.30;59.20;;;;;;4959847;29;20426;-89
2022/05/22 15:29:27;;;;;;;5.30;2.30;;;26.20;59.30;;;;;;4958984;28;20480;-88
2022/05/22 15:31:54;;;;;;;4.30;1.90;;;26.10;59.60;;;;;;4963320;29;20508;-88
2022/05/22 15:34:26;;;;;;;4.50;2.20;;;26.20;59.50;;;;;;4972857;28;20502;-88
2022/05/22 15:36:54;;;;;;;6.00;2.20;;;26.00;60.00;;;;;;4974814;29;20420;-87
2022/05/22 15:39:29;;;;;;;4.93;2.50;;;25.80;60.30;;;;;;4978131;28;20445;-89
2022/05/22 15:42:11;;;;;;;4.03;2.30;;;25.50;60.90;;;;;;4977620;28;20440;-89
2022/05/22 15:44:43;;;;;;;4.60;2.40;;;25.40;61.30;;;;;;4975884;28;20504;-88
2022/05/22 15:47:29;;;;;;;3.60;2.00;;;25.30;61.70;;;;;;4974773;28;20470;-88
2022/05/22 15:53:00;;;;;;;4.63;2.50;;;25.30;63.20;;;;;;4967337;29;20456;-88
2022/05/22 15:55:29;;;;;;;4.90;1.93;;;25.30;63.40;;;;;;4970722;28;20448;-88
2022/05/22 15:57:57;;;;;;;4.00;2.13;;;25.20;63.40;;;;;;5009092;23;20731;-89
2022/05/22 16:03:01;;;;;;;6.07;2.77;;;24.90;64.90;;;;;;4976606;28;20488;-87
2022/05/22 16:05:31;;;;;;;5.70;2.67;;;24.80;66.90;;;;;;5071989;23;20521;-89
2022/05/22 16:07:58;;;;;;;4.57;2.23;;;24.90;68.10;;;;;;5000619;28;20462;-90
2022/05/22 16:10:27;;;;;;;5.27;2.90;;;24.90;67.00;;;;;;5183770;23;20539;-87
2022/05/22 16:12:54;;;;;;;4.97;2.90;;;24.80;66.70;;;;;;4989390;28;20483;-88
2022/05/22 16:15:24;;;;;;;5.50;3.40;;;24.70;67.50;;;;;;4986184;28;20862;-88
2022/05/22 16:17:56;;;;;;;6.20;4.20;;;24.70;67.50;;;;;;5071819;23;20554;-89
2022/05/22 16:20:31;;;;;;;5.67;2.63;;;24.60;67.30;;;;;;5017589;23;20527;-88
2022/05/22 16:23:01;;;;;;;4.17;2.17;;;24.60;67.10;;;;;;4989614;28;20500;-88
2022/05/22 16:25:29;;;;;;;5.33;3.00;;;24.60;66.60;;;;;;4989188;28;20455;-88
2022/05/22 16:27:57;;;;;;;5.50;2.70;;;24.40;67.20;;;;;;4995011;28;20471;-88
2022/05/22 16:30:32;;;;;;;4.77;2.43;;;24.30;67.60;;;;;;4996010;28;20483;-88
2022/05/22 16:33:03;;;;;;;5.60;3.50;;;24.30;67.50;;;;;;4990045;28;20461;-88
2022/05/22 16:35:49;;;;;;;5.70;2.67;;;24.20;67.80;;;;;;4989369;28;20440;-88
2022/05/22 16:38:29;;;;;;;6.50;2.93;;;24.30;67.10;;;;;;4991778;28;20440;-88
2022/05/22 16:40:56;;;;;;;4.27;2.37;;;24.40;67.10;;;;;;4995770;28;20444;-88
2022/05/22 16:43:26;;;;;;;4.30;2.20;;;24.40;67.00;;;;;;4997741;28;20578;-87
2022/05/22 16:46:03;;;;;;;5.90;2.83;;;24.40;67.10;;;;;;5106164;23;20488;-89
2022/05/22 16:54:00;;;;;;;4.30;2.73;;;24.30;66.90;;;;;;4963110;28;20465;-88
2022/05/22 16:56:30;;;;;;;5.00;2.40;;;24.30;66.70;;;;;;4974354;28;20481;-88
2022/05/22 16:58:58;;;;;;;6.60;3.00;;;24.30;67.00;;;;;;5131044;23;20534;-87
2022/05/22 17:01:25;;;;;;;7.03;3.20;;;24.30;67.20;;;;;;4992072;28;20440;-87